sensor_id;sensor_type;location;lat;lon;timestamp;P1;durP1;ratioP1;P2;durP2;ratioP2
56631;SDS011;42503;39.928;-75.152;2022-08-18T00:02:02;2.08;;;1.83;;
56631;SDS011;42503;39.928;-75.152;2022-08-18T00:04:04;4.03;;;1.90;;
56631;SDS011;42503;39.928;-75.152;2022-08-18T00:06:05;3.10;;;2.10;;
56631;SDS011;42503;39.928;-75.152;2022-08-18T00:08:06;5.18;;;2.10;;
56631;SDS011;42503;39.928;-75.152;2022-08-18T00:10:07;4.72;;;2.05;;
56631;SDS011;42503;39.928;-75.152;2022-08-18T00:12:12;2.80;;;1.92;;
56631;SDS011;42503;39.928;-75.152;2022-08-18T00:16:13;4.13;;;2.33;;
56631;SDS011;42503;39.928;-75.152;2022-08-18T00:18:14;2.80;;;1.90;;
56631;SDS011;42503;39.928;-75.152;2022-08-18T00:20:17;2.28;;;2.03;;
56631;SDS011;42503;39.928;-75.152;2022-08-18T00:22:19;3.17;;;1.70;;
56631;SDS011;42503;39.928;-75.152;2022-08-18T00:24:20;3.40;;;1.70;;
56631;SDS011;42503;39.928;-75.152;2022-08-18T00:26:21;2.40;;;1.58;;
56631;SDS011;42503;39.928;-75.152;2022-08-18T00:28:22;3.35;;;2.03;;
56631;SDS011;42503;39.928;-75.152;2022-08-18T00:30:22;4.35;;;2.20;;
56631;SDS011;42503;39.928;-75.152;2022-08-18T00:32:28;2.35;;;1.83;;
56631;SDS011;42503;39.928;-75.152;2022-08-18T00:34:32;2.00;;;1.80;;
56631;SDS011;42503;39.928;-75.152;2022-08-18T00:36:33;2.72;;;1.83;;
56631;SDS011;42503;39.928;-75.152;2022-08-18T00:38:34;2.55;;;1.63;;
56631;SDS011;42503;39.928;-75.152;2022-08-18T00:40:37;2.67;;;1.80;;
56631;SDS011;42503;39.928;-75.152;2022-08-18T00:42:43;1.60;;;1.50;;
56631;SDS011;42503;39.928;-75.152;2022-08-18T00:44:44;2.83;;;1.98;;
56631;SDS011;42503;39.928;-75.152;2022-08-18T00:46:45;3.70;;;1.92;;
56631;SDS011;42503;39.928;-75.152;2022-08-18T00:48:49;3.90;;;1.73;;
56631;SDS011;42503;39.928;-75.152;2022-08-18T00:51:02;5.68;;;1.80;;
56631;SDS011;42503;39.928;-75.152;2022-08-18T00:53:17;1.90;;;1.63;;
56631;SDS011;42503;39.928;-75.152;2022-08-18T00:55:24;4.97;;;1.90;;
56631;SDS011;42503;39.928;-75.152;2022-08-18T00:57:27;2.95;;;2.00;;
56631;SDS011;42503;39.928;-75.152;2022-08-18T01:01:29;3.53;;;1.70;;
56631;SDS011;42503;39.928;-75.152;2022-08-18T01:03:31;3.78;;;1.90;;
56631;SDS011;42503;39.928;-75.152;2022-08-18T01:05:53;2.38;;;2.00;;
56631;SDS011;42503;39.928;-75.152;2022-08-18T01:07:55;2.30;;;1.40;;
56631;SDS011;42503;39.928;-75.152;2022-08-18T01:09:56;3.50;;;2.10;;
56631;SDS011;42503;39.928;-75.152;2022-08-18T01:12:02;4.85;;;1.83;;
56631;SDS011;42503;39.928;-75.152;2022-08-18T01:14:04;1.73;;;1.63;;
56631;SDS011;42503;39.928;-75.152;2022-08-18T01:16:05;2.13;;;1.77;;
56631;SDS011;42503;39.928;-75.152;2022-08-18T01:18:25;3.15;;;2.15;;
56631;SDS011;42503;39.928;-75.152;2022-08-18T01:20:51;3.75;;;2.10;;
56631;SDS011;42503;39.928;-75.152;2022-08-18T01:23:13;2.67;;;1.67;;
56631;SDS011;42503;39.928;-75.152;2022-08-18T01:25:16;1.90;;;1.65;;
56631;SDS011;42503;39.928;-75.152;2022-08-18T01:27:36;2.20;;;1.80;;
56631;SDS011;42503;39.928;-75.152;2022-08-18T01:29:39;3.22;;;1.65;;
56631;SDS011;42503;39.928;-75.152;2022-08-18T01:31:41;5.07;;;2.08;;
56631;SDS011;42503;39.928;-75.152;2022-08-18T01:33:42;2.22;;;1.65;;
56631;SDS011;42503;39.928;-75.152;2022-08-18T01:35:45;2.03;;;1.70;;
56631;SDS011;42503;39.928;-75.152;2022-08-18T01:37:52;2.42;;;1.70;;
56631;SDS011;42503;39.928;-75.152;2022-08-18T01:39:54;2.45;;;1.70;;
56631;SDS011;42503;39.928;-75.152;2022-08-18T01:41:57;2.30;;;2.00;;
56631;SDS011;42503;39.928;-75.152;2022-08-18T01:43:59;2.25;;;1.80;;
56631;SDS011;42503;39.928;-75.152;2022-08-18T01:46:00;2.10;;;1.80;;
56631;SDS011;42503;39.928;-75.152;2022-08-18T01:48:03;2.83;;;1.67;;
56631;SDS011;42503;39.928;-75.152;2022-08-18T01:50:04;2.17;;;1.50;;
56631;SDS011;42503;39.928;-75.152;2022-08-18T01:52:07;3.20;;;1.58;;
56631;SDS011;42503;39.928;-75.152;2022-08-18T01:54:09;1.95;;;1.73;;
56631;SDS011;42503;39.928;-75.152;2022-08-18T01:56:11;2.92;;;2.00;;
56631;SDS011;42503;39.928;-75.152;2022-08-18T01:58:12;2.55;;;1.90;;
56631;SDS011;42503;39.928;-75.152;2022-08-18T02:00:14;1.70;;;1.60;;
56631;SDS011;42503;39.928;-75.152;2022-08-18T02:02:16;1.70;;;1.60;;
56631;SDS011;42503;39.928;-75.152;2022-08-18T02:04:18;1.90;;;1.80;;
56631;SDS011;42503;39.928;-75.152;2022-08-18T02:06:19;12.20;;;2.30;;
56631;SDS011;42503;39.928;-75.152;2022-08-18T02:08:20;3.95;;;2.22;;
56631;SDS011;42503;39.928;-75.152;2022-08-18T02:10:21;2.72;;;1.70;;
56631;SDS011;42503;39.928;-75.152;2022-08-18T02:12:23;5.82;;;1.70;;
56631;SDS011;42503;39.928;-75.152;2022-08-18T02:14:26;6.68;;;1.73;;
56631;SDS011;42503;39.928;-75.152;2022-08-18T02:16:27;3.28;;;2.10;;
56631;SDS011;42503;39.928;-75.152;2022-08-18T02:18:30;9.75;;;2.05;;
56631;SDS011;42503;39.928;-75.152;2022-08-18T02:20:34;2.72;;;1.90;;
56631;SDS011;42503;39.928;-75.152;2022-08-18T02:22:35;4.15;;;1.58;;
56631;SDS011;42503;39.928;-75.152;2022-08-18T02:24:36;11.95;;;1.75;;
56631;SDS011;42503;39.928;-75.152;2022-08-18T02:26:37;3.55;;;1.67;;
56631;SDS011;42503;39.928;-75.152;2022-08-18T02:28:38;3.92;;;2.03;;
56631;SDS011;42503;39.928;-75.152;2022-08-18T02:30:39;4.20;;;1.83;;
56631;SDS011;42503;39.928;-75.152;2022-08-18T02:32:40;6.18;;;1.80;;
56631;SDS011;42503;39.928;-75.152;2022-08-18T02:34:41;3.60;;;1.70;;
56631;SDS011;42503;39.928;-75.152;2022-08-18T02:36:45;3.80;;;1.85;;
56631;SDS011;42503;39.928;-75.152;2022-08-18T02:38:49;4.57;;;1.85;;
56631;SDS011;42503;39.928;-75.152;2022-08-18T02:40:56;2.90;;;1.85;;
56631;SDS011;42503;39.928;-75.152;2022-08-18T02:42:57;4.40;;;1.70;;
56631;SDS011;42503;39.928;-75.152;2022-08-18T02:44:58;4.28;;;1.70;;
56631;SDS011;42503;39.928;-75.152;2022-08-18T02:46:59;4.65;;;1.85;;
56631;SDS011;42503;39.928;-75.152;2022-08-18T02:49:00;4.57;;;2.00;;
56631;SDS011;42503;39.928;-75.152;2022-08-18T02:53:05;2.08;;;1.80;;
56631;SDS011;42503;39.928;-75.152;2022-08-18T02:55:06;1.65;;;1.55;;
56631;SDS011;42503;39.928;-75.152;2022-08-18T02:57:08;2.55;;;1.80;;
56631;SDS011;42503;39.928;-75.152;2022-08-18T02:59:14;2.40;;;1.88;;
56631;SDS011;42503;39.928;-75.152;2022-08-18T03:01:15;1.85;;;1.60;;
56631;SDS011;42503;39.928;-75.152;2022-08-18T03:03:16;2.08;;;1.50;;
56631;SDS011;42503;39.928;-75.152;2022-08-18T03:05:18;4.07;;;1.40;;
56631;SDS011;42503;39.928;-75.152;2022-08-18T03:07:19;5.10;;;1.85;;
56631;SDS011;42503;39.928;-75.152;2022-08-18T03:09:20;3.92;;;1.63;;
56631;SDS011;42503;39.928;-75.152;2022-08-18T03:11:22;3.75;;;1.88;;
56631;SDS011;42503;39.928;-75.152;2022-08-18T03:13:24;2.60;;;1.58;;
56631;SDS011;42503;39.928;-75.152;2022-08-18T03:15:25;2.22;;;1.52;;
56631;SDS011;42503;39.928;-75.152;2022-08-18T03:17:26;3.13;;;1.95;;
56631;SDS011;42503;39.928;-75.152;2022-08-18T03:19:27;2.85;;;1.63;;
56631;SDS011;42503;39.928;-75.152;2022-08-18T03:21:31;3.70;;;1.98;;
56631;SDS011;42503;39.928;-75.152;2022-08-18T03:23:35;2.67;;;1.58;;
56631;SDS011;42503;39.928;-75.152;2022-08-18T03:25:42;3.47;;;1.80;;
56631;SDS011;42503;39.928;-75.152;2022-08-18T03:27:43;1.70;;;1.33;;
56631;SDS011;42503;39.928;-75.152;2022-08-18T03:29:44;2.33;;;1.63;;
56631;SDS011;42503;39.928;-75.152;2022-08-18T03:31:45;1.80;;;1.50;;
56631;SDS011;42503;39.928;-75.152;2022-08-18T03:33:47;1.63;;;1.50;;
56631;SDS011;42503;39.928;-75.152;2022-08-18T03:35:49;5.75;;;1.75;;
56631;SDS011;42503;39.928;-75.152;2022-08-18T03:37:50;2.10;;;1.50;;
56631;SDS011;42503;39.928;-75.152;2022-08-18T03:39:51;2.53;;;1.80;;
56631;SDS011;42503;39.928;-75.152;2022-08-18T03:41:55;2.55;;;1.30;;
56631;SDS011;42503;39.928;-75.152;2022-08-18T03:43:56;2.50;;;1.60;;
56631;SDS011;42503;39.928;-75.152;2022-08-18T03:46:03;1.75;;;1.65;;
56631;SDS011;42503;39.928;-75.152;2022-08-18T03:48:04;1.98;;;1.48;;
56631;SDS011;42503;39.928;-75.152;2022-08-18T03:50:06;3.25;;;1.60;;
56631;SDS011;42503;39.928;-75.152;2022-08-18T03:52:08;3.05;;;2.00;;
56631;SDS011;42503;39.928;-75.152;2022-08-18T03:54:09;1.80;;;1.52;;
56631;SDS011;42503;39.928;-75.152;2022-08-18T03:56:13;1.65;;;1.52;;
56631;SDS011;42503;39.928;-75.152;2022-08-18T03:58:17;2.38;;;1.60;;
56631;SDS011;42503;39.928;-75.152;2022-08-18T04:00:18;2.28;;;1.48;;
56631;SDS011;42503;39.928;-75.152;2022-08-18T04:02:19;1.60;;;1.50;;
56631;SDS011;42503;39.928;-75.152;2022-08-18T04:04:21;3.80;;;1.60;;
56631;SDS011;42503;39.928;-75.152;2022-08-18T04:06:26;2.58;;;1.52;;
56631;SDS011;42503;39.928;-75.152;2022-08-18T04:08:27;2.92;;;1.55;;
56631;SDS011;42503;39.928;-75.152;2022-08-18T04:10:28;2.17;;;1.50;;
56631;SDS011;42503;39.928;-75.152;2022-08-18T04:12:28;1.45;;;1.35;;
56631;SDS011;42503;39.928;-75.152;2022-08-18T04:14:32;2.53;;;1.77;;
56631;SDS011;42503;39.928;-75.152;2022-08-18T04:16:33;1.63;;;1.50;;
56631;SDS011;42503;39.928;-75.152;2022-08-18T04:18:40;2.25;;;1.42;;
56631;SDS011;42503;39.928;-75.152;2022-08-18T04:20:41;2.33;;;1.58;;
56631;SDS011;42503;39.928;-75.152;2022-08-18T04:22:41;1.52;;;1.42;;
56631;SDS011;42503;39.928;-75.152;2022-08-18T04:24:45;7.18;;;1.85;;
56631;SDS011;42503;39.928;-75.152;2022-08-18T04:26:46;1.50;;;1.40;;
56631;SDS011;42503;39.928;-75.152;2022-08-18T04:28:47;2.97;;;1.67;;
56631;SDS011;42503;39.928;-75.152;2022-08-18T04:30:48;1.77;;;1.63;;
56631;SDS011;42503;39.928;-75.152;2022-08-18T04:32:49;2.72;;;1.58;;
56631;SDS011;42503;39.928;-75.152;2022-08-18T04:34:50;1.50;;;1.40;;
56631;SDS011;42503;39.928;-75.152;2022-08-18T04:36:51;1.65;;;1.48;;
56631;SDS011;42503;39.928;-75.152;2022-08-18T04:38:55;2.05;;;1.40;;
56631;SDS011;42503;39.928;-75.152;2022-08-18T04:40:57;1.73;;;1.45;;
56631;SDS011;42503;39.928;-75.152;2022-08-18T04:42:57;1.98;;;1.70;;
56631;SDS011;42503;39.928;-75.152;2022-08-18T04:44:58;1.70;;;1.40;;
56631;SDS011;42503;39.928;-75.152;2022-08-18T04:47:03;2.75;;;2.00;;
56631;SDS011;42503;39.928;-75.152;2022-08-18T04:51:15;1.88;;;1.50;;
56631;SDS011;42503;39.928;-75.152;2022-08-18T04:53:18;3.30;;;1.65;;
56631;SDS011;42503;39.928;-75.152;2022-08-18T04:55:37;1.95;;;1.65;;
56631;SDS011;42503;39.928;-75.152;2022-08-18T04:57:38;1.80;;;1.63;;
56631;SDS011;42503;39.928;-75.152;2022-08-18T04:59:39;1.80;;;1.50;;
56631;SDS011;42503;39.928;-75.152;2022-08-18T05:01:41;1.50;;;1.40;;
56631;SDS011;42503;39.928;-75.152;2022-08-18T05:03:44;1.83;;;1.63;;
56631;SDS011;42503;39.928;-75.152;2022-08-18T05:05:45;2.47;;;1.77;;
56631;SDS011;42503;39.928;-75.152;2022-08-18T05:07:46;1.80;;;1.50;;
56631;SDS011;42503;39.928;-75.152;2022-08-18T05:09:47;1.80;;;1.70;;
56631;SDS011;42503;39.928;-75.152;2022-08-18T05:11:48;3.30;;;1.60;;
56631;SDS011;42503;39.928;-75.152;2022-08-18T05:13:49;2.75;;;1.85;;
56631;SDS011;42503;39.928;-75.152;2022-08-18T05:15:54;2.58;;;1.70;;
56631;SDS011;42503;39.928;-75.152;2022-08-18T05:17:59;1.65;;;1.52;;
56631;SDS011;42503;39.928;-75.152;2022-08-18T05:20:00;2.60;;;1.95;;
56631;SDS011;42503;39.928;-75.152;2022-08-18T05:22:04;1.50;;;1.40;;
56631;SDS011;42503;39.928;-75.152;2022-08-18T05:24:07;2.15;;;1.70;;
56631;SDS011;42503;39.928;-75.152;2022-08-18T05:26:12;1.90;;;1.40;;
56631;SDS011;42503;39.928;-75.152;2022-08-18T05:28:14;3.75;;;1.98;;
56631;SDS011;42503;39.928;-75.152;2022-08-18T05:30:15;3.70;;;1.52;;
56631;SDS011;42503;39.928;-75.152;2022-08-18T05:32:16;4.95;;;1.75;;
56631;SDS011;42503;39.928;-75.152;2022-08-18T05:34:17;2.80;;;1.70;;
56631;SDS011;42503;39.928;-75.152;2022-08-18T05:38:37;2.97;;;1.70;;
56631;SDS011;42503;39.928;-75.152;2022-08-18T05:40:39;2.25;;;1.65;;
56631;SDS011;42503;39.928;-75.152;2022-08-18T05:42:40;2.38;;;1.60;;
56631;SDS011;42503;39.928;-75.152;2022-08-18T05:44:45;3.85;;;1.60;;
56631;SDS011;42503;39.928;-75.152;2022-08-18T05:48:47;3.58;;;1.75;;
56631;SDS011;42503;39.928;-75.152;2022-08-18T05:50:48;4.85;;;1.77;;
56631;SDS011;42503;39.928;-75.152;2022-08-18T05:54:54;2.13;;;1.67;;
56631;SDS011;42503;39.928;-75.152;2022-08-18T05:57:16;2.55;;;1.90;;
56631;SDS011;42503;39.928;-75.152;2022-08-18T05:59:29;2.38;;;2.08;;
56631;SDS011;42503;39.928;-75.152;2022-08-18T06:01:39;2.50;;;1.70;;
56631;SDS011;42503;39.928;-75.152;2022-08-18T06:03:42;1.90;;;1.50;;
56631;SDS011;42503;39.928;-75.152;2022-08-18T06:09:53;3.33;;;1.67;;
56631;SDS011;42503;39.928;-75.152;2022-08-18T06:11:56;3.45;;;1.98;;
56631;SDS011;42503;39.928;-75.152;2022-08-18T06:14:04;2.03;;;1.80;;
56631;SDS011;42503;39.928;-75.152;2022-08-18T06:16:31;2.75;;;2.00;;
56631;SDS011;42503;39.928;-75.152;2022-08-18T06:21:01;3.75;;;1.65;;
56631;SDS011;42503;39.928;-75.152;2022-08-18T06:25:19;2.10;;;1.90;;
56631;SDS011;42503;39.928;-75.152;2022-08-18T06:30:35;1.80;;;1.65;;
56631;SDS011;42503;39.928;-75.152;2022-08-18T06:36:08;2.05;;;1.80;;
56631;SDS011;42503;39.928;-75.152;2022-08-18T06:40:35;1.80;;;1.70;;
56631;SDS011;42503;39.928;-75.152;2022-08-18T06:42:39;2.80;;;1.88;;
56631;SDS011;42503;39.928;-75.152;2022-08-18T06:44:49;2.53;;;2.30;;
56631;SDS011;42503;39.928;-75.152;2022-08-18T06:46:53;3.00;;;1.90;;
56631;SDS011;42503;39.928;-75.152;2022-08-18T06:48:56;2.33;;;2.07;;
56631;SDS011;42503;39.928;-75.152;2022-08-18T06:51:02;2.15;;;1.95;;
56631;SDS011;42503;39.928;-75.152;2022-08-18T06:53:05;2.88;;;2.28;;
56631;SDS011;42503;39.928;-75.152;2022-08-18T06:55:07;2.22;;;1.95;;
56631;SDS011;42503;39.928;-75.152;2022-08-18T06:57:08;1.88;;;1.67;;
56631;SDS011;42503;39.928;-75.152;2022-08-18T06:59:22;2.10;;;1.95;;
56631;SDS011;42503;39.928;-75.152;2022-08-18T07:01:26;1.88;;;1.55;;
56631;SDS011;42503;39.928;-75.152;2022-08-18T07:05:55;2.10;;;1.75;;
56631;SDS011;42503;39.928;-75.152;2022-08-18T07:10:05;2.28;;;1.85;;
56631;SDS011;42503;39.928;-75.152;2022-08-18T07:12:07;2.28;;;2.08;;
56631;SDS011;42503;39.928;-75.152;2022-08-18T07:14:13;2.10;;;1.90;;
56631;SDS011;42503;39.928;-75.152;2022-08-18T07:16:20;2.05;;;1.85;;
56631;SDS011;42503;39.928;-75.152;2022-08-18T07:18:24;2.42;;;2.00;;
56631;SDS011;42503;39.928;-75.152;2022-08-18T07:20:26;3.40;;;1.90;;
56631;SDS011;42503;39.928;-75.152;2022-08-18T07:22:27;1.75;;;1.63;;
56631;SDS011;42503;39.928;-75.152;2022-08-18T07:24:32;2.10;;;1.90;;
56631;SDS011;42503;39.928;-75.152;2022-08-18T07:28:55;2.10;;;1.90;;
56631;SDS011;42503;39.928;-75.152;2022-08-18T07:31:22;2.50;;;2.22;;
56631;SDS011;42503;39.928;-75.152;2022-08-18T07:33:26;2.80;;;2.13;;
56631;SDS011;42503;39.928;-75.152;2022-08-18T07:35:29;2.00;;;1.77;;
56631;SDS011;42503;39.928;-75.152;2022-08-18T07:39:39;2.15;;;1.95;;
56631;SDS011;42503;39.928;-75.152;2022-08-18T07:41:51;2.00;;;1.80;;
56631;SDS011;42503;39.928;-75.152;2022-08-18T07:46:02;2.10;;;1.90;;
56631;SDS011;42503;39.928;-75.152;2022-08-18T07:50:12;3.22;;;2.15;;
56631;SDS011;42503;39.928;-75.152;2022-08-18T07:52:29;1.90;;;1.80;;
56631;SDS011;42503;39.928;-75.152;2022-08-18T07:54:37;2.67;;;2.17;;
56631;SDS011;42503;39.928;-75.152;2022-08-18T07:56:47;2.70;;;2.20;;
56631;SDS011;42503;39.928;-75.152;2022-08-18T07:58:53;2.70;;;2.20;;
56631;SDS011;42503;39.928;-75.152;2022-08-18T08:07:25;2.42;;;2.00;;
56631;SDS011;42503;39.928;-75.152;2022-08-18T08:09:32;2.22;;;2.03;;
56631;SDS011;42503;39.928;-75.152;2022-08-18T08:13:49;2.55;;;2.10;;
56631;SDS011;42503;39.928;-75.152;2022-08-18T08:16:03;2.58;;;1.92;;
56631;SDS011;42503;39.928;-75.152;2022-08-18T08:29:09;2.70;;;2.45;;
56631;SDS011;42503;39.928;-75.152;2022-08-18T08:31:16;2.58;;;2.03;;
56631;SDS011;42503;39.928;-75.152;2022-08-18T08:33:29;2.50;;;1.95;;
56631;SDS011;42503;39.928;-75.152;2022-08-18T08:37:51;2.50;;;2.08;;
56631;SDS011;42503;39.928;-75.152;2022-08-18T08:39:55;1.98;;;1.80;;
56631;SDS011;42503;39.928;-75.152;2022-08-18T08:42:00;4.05;;;2.00;;
56631;SDS011;42503;39.928;-75.152;2022-08-18T08:44:48;2.35;;;2.15;;
56631;SDS011;42503;39.928;-75.152;2022-08-18T08:46:29;2.30;;;2.10;;
56631;SDS011;42503;39.928;-75.152;2022-08-18T08:48:33;3.75;;;2.20;;
56631;SDS011;42503;39.928;-75.152;2022-08-18T08:50:40;2.97;;;2.67;;
56631;SDS011;42503;39.928;-75.152;2022-08-18T08:52:45;2.20;;;2.00;;
56631;SDS011;42503;39.928;-75.152;2022-08-18T08:56:48;3.28;;;2.13;;
56631;SDS011;42503;39.928;-75.152;2022-08-18T08:58:57;2.47;;;2.28;;
56631;SDS011;42503;39.928;-75.152;2022-08-18T09:00:58;2.30;;;2.10;;
56631;SDS011;42503;39.928;-75.152;2022-08-18T09:05:07;2.63;;;2.42;;
56631;SDS011;42503;39.928;-75.152;2022-08-18T09:11:21;3.35;;;2.25;;
56631;SDS011;42503;39.928;-75.152;2022-08-18T09:20:09;2.28;;;2.10;;
56631;SDS011;42503;39.928;-75.152;2022-08-18T09:24:38;3.03;;;2.28;;
56631;SDS011;42503;39.928;-75.152;2022-08-18T09:31:27;2.47;;;2.28;;
56631;SDS011;42503;39.928;-75.152;2022-08-18T09:37:58;5.30;;;2.28;;
56631;SDS011;42503;39.928;-75.152;2022-08-18T09:40:18;2.00;;;1.90;;
56631;SDS011;42503;39.928;-75.152;2022-08-18T09:42:40;3.75;;;2.13;;
56631;SDS011;42503;39.928;-75.152;2022-08-18T09:48:47;2.40;;;2.20;;
56631;SDS011;42503;39.928;-75.152;2022-08-18T09:53:37;2.40;;;2.20;;
56631;SDS011;42503;39.928;-75.152;2022-08-18T09:55:56;2.53;;;2.10;;
56631;SDS011;42503;39.928;-75.152;2022-08-18T09:58:14;2.00;;;1.88;;
56631;SDS011;42503;39.928;-75.152;2022-08-18T10:00:25;2.45;;;2.25;;
56631;SDS011;42503;39.928;-75.152;2022-08-18T10:06:35;2.60;;;2.40;;
56631;SDS011;42503;39.928;-75.152;2022-08-18T10:08:45;2.53;;;2.33;;
56631;SDS011;42503;39.928;-75.152;2022-08-18T10:10:54;2.38;;;2.17;;
56631;SDS011;42503;39.928;-75.152;2022-08-18T10:22:02;2.83;;;2.50;;
56631;SDS011;42503;39.928;-75.152;2022-08-18T10:31:06;3.53;;;2.35;;
56631;SDS011;42503;39.928;-75.152;2022-08-18T10:33:08;3.10;;;2.42;;
56631;SDS011;42503;39.928;-75.152;2022-08-18T10:36:11;2.20;;;2.00;;
56631;SDS011;42503;39.928;-75.152;2022-08-18T10:37:45;2.95;;;2.20;;
56631;SDS011;42503;39.928;-75.152;2022-08-18T10:39:58;2.50;;;2.30;;
56631;SDS011;42503;39.928;-75.152;2022-08-18T10:42:22;2.97;;;2.30;;
56631;SDS011;42503;39.928;-75.152;2022-08-18T10:44:21;2.80;;;2.60;;
56631;SDS011;42503;39.928;-75.152;2022-08-18T10:46:24;2.65;;;2.45;;
56631;SDS011;42503;39.928;-75.152;2022-08-18T10:48:29;2.60;;;2.40;;
56631;SDS011;42503;39.928;-75.152;2022-08-18T10:50:41;2.80;;;2.60;;
56631;SDS011;42503;39.928;-75.152;2022-08-18T10:52:54;2.40;;;2.20;;
56631;SDS011;42503;39.928;-75.152;2022-08-18T10:55:04;2.30;;;2.10;;
56631;SDS011;42503;39.928;-75.152;2022-08-18T10:57:13;2.58;;;2.22;;
56631;SDS011;42503;39.928;-75.152;2022-08-18T11:06:08;2.45;;;2.25;;
56631;SDS011;42503;39.928;-75.152;2022-08-18T11:08:14;2.45;;;2.20;;
56631;SDS011;42503;39.928;-75.152;2022-08-18T11:10:33;3.45;;;2.20;;
56631;SDS011;42503;39.928;-75.152;2022-08-18T11:15:04;5.13;;;2.65;;
56631;SDS011;42503;39.928;-75.152;2022-08-18T11:17:10;2.58;;;2.38;;
56631;SDS011;42503;39.928;-75.152;2022-08-18T11:19:14;2.30;;;2.10;;
56631;SDS011;42503;39.928;-75.152;2022-08-18T11:21:23;2.38;;;2.17;;
56631;SDS011;42503;39.928;-75.152;2022-08-18T11:23:24;2.50;;;2.30;;
56631;SDS011;42503;39.928;-75.152;2022-08-18T11:25:35;3.70;;;2.80;;
56631;SDS011;42503;39.928;-75.152;2022-08-18T11:27:37;3.03;;;2.30;;
56631;SDS011;42503;39.928;-75.152;2022-08-18T11:29:45;2.58;;;2.38;;
56631;SDS011;42503;39.928;-75.152;2022-08-18T11:31:47;2.53;;;2.25;;
56631;SDS011;42503;39.928;-75.152;2022-08-18T11:33:49;2.60;;;2.38;;
56631;SDS011;42503;39.928;-75.152;2022-08-18T11:35:51;2.30;;;2.17;;
56631;SDS011;42503;39.928;-75.152;2022-08-18T11:37:55;2.50;;;2.30;;
56631;SDS011;42503;39.928;-75.152;2022-08-18T11:39:59;2.20;;;2.00;;
56631;SDS011;42503;39.928;-75.152;2022-08-18T11:42:01;2.50;;;2.30;;
56631;SDS011;42503;39.928;-75.152;2022-08-18T11:44:03;2.90;;;2.60;;
56631;SDS011;42503;39.928;-75.152;2022-08-18T11:46:15;2.70;;;2.25;;
56631;SDS011;42503;39.928;-75.152;2022-08-18T11:50:26;3.33;;;2.20;;
56631;SDS011;42503;39.928;-75.152;2022-08-18T11:52:28;2.60;;;2.40;;
56631;SDS011;42503;39.928;-75.152;2022-08-18T11:54:39;2.85;;;2.65;;
56631;SDS011;42503;39.928;-75.152;2022-08-18T11:56:41;2.33;;;2.13;;
56631;SDS011;42503;39.928;-75.152;2022-08-18T11:58:44;3.08;;;2.33;;
56631;SDS011;42503;39.928;-75.152;2022-08-18T12:02:46;2.55;;;2.35;;
56631;SDS011;42503;39.928;-75.152;2022-08-18T12:04:51;2.08;;;1.98;;
56631;SDS011;42503;39.928;-75.152;2022-08-18T12:09:16;2.50;;;2.30;;
56631;SDS011;42503;39.928;-75.152;2022-08-18T12:11:19;2.20;;;2.00;;
56631;SDS011;42503;39.928;-75.152;2022-08-18T12:13:23;2.63;;;2.30;;
56631;SDS011;42503;39.928;-75.152;2022-08-18T12:15:26;2.55;;;2.35;;
56631;SDS011;42503;39.928;-75.152;2022-08-18T12:17:28;2.58;;;2.30;;
56631;SDS011;42503;39.928;-75.152;2022-08-18T12:19:30;2.80;;;2.13;;
56631;SDS011;42503;39.928;-75.152;2022-08-18T12:21:35;2.50;;;2.17;;
56631;SDS011;42503;39.928;-75.152;2022-08-18T12:23:38;2.63;;;2.28;;
56631;SDS011;42503;39.928;-75.152;2022-08-18T12:25:40;2.55;;;2.35;;
56631;SDS011;42503;39.928;-75.152;2022-08-18T12:27:40;2.72;;;1.88;;
56631;SDS011;42503;39.928;-75.152;2022-08-18T12:29:41;2.50;;;2.33;;
56631;SDS011;42503;39.928;-75.152;2022-08-18T12:31:46;3.10;;;2.50;;
56631;SDS011;42503;39.928;-75.152;2022-08-18T12:33:47;2.15;;;1.95;;
56631;SDS011;42503;39.928;-75.152;2022-08-18T12:35:51;2.63;;;2.30;;
56631;SDS011;42503;39.928;-75.152;2022-08-18T12:37:54;3.58;;;2.25;;
56631;SDS011;42503;39.928;-75.152;2022-08-18T12:39:56;2.58;;;2.38;;
56631;SDS011;42503;39.928;-75.152;2022-08-18T12:41:58;2.33;;;2.13;;
56631;SDS011;42503;39.928;-75.152;2022-08-18T12:43:59;2.60;;;2.40;;
56631;SDS011;42503;39.928;-75.152;2022-08-18T12:46:00;2.63;;;2.30;;
56631;SDS011;42503;39.928;-75.152;2022-08-18T12:48:04;2.22;;;2.03;;
56631;SDS011;42503;39.928;-75.152;2022-08-18T12:50:10;2.30;;;2.10;;
56631;SDS011;42503;39.928;-75.152;2022-08-18T12:52:11;2.05;;;1.95;;
56631;SDS011;42503;39.928;-75.152;2022-08-18T12:54:13;2.30;;;2.10;;
56631;SDS011;42503;39.928;-75.152;2022-08-18T12:56:20;2.25;;;2.05;;
56631;SDS011;42503;39.928;-75.152;2022-08-18T12:58:21;2.55;;;2.35;;
56631;SDS011;42503;39.928;-75.152;2022-08-18T13:00:22;2.50;;;2.30;;
56631;SDS011;42503;39.928;-75.152;2022-08-18T13:02:23;2.67;;;2.08;;
56631;SDS011;42503;39.928;-75.152;2022-08-18T13:04:24;2.30;;;2.10;;
56631;SDS011;42503;39.928;-75.152;2022-08-18T13:06:25;2.33;;;2.10;;
56631;SDS011;42503;39.928;-75.152;2022-08-18T13:08:26;2.38;;;2.13;;
56631;SDS011;42503;39.928;-75.152;2022-08-18T13:10:27;1.92;;;1.80;;
56631;SDS011;42503;39.928;-75.152;2022-08-18T13:12:29;2.22;;;2.00;;
56631;SDS011;42503;39.928;-75.152;2022-08-18T13:14:30;2.20;;;2.00;;
56631;SDS011;42503;39.928;-75.152;2022-08-18T13:16:31;2.28;;;2.08;;
56631;SDS011;42503;39.928;-75.152;2022-08-18T13:18:34;1.92;;;1.73;;
56631;SDS011;42503;39.928;-75.152;2022-08-18T13:20:35;2.33;;;2.13;;
56631;SDS011;42503;39.928;-75.152;2022-08-18T13:22:36;2.30;;;2.10;;
56631;SDS011;42503;39.928;-75.152;2022-08-18T13:24:39;2.40;;;2.20;;
56631;SDS011;42503;39.928;-75.152;2022-08-18T13:26:41;2.03;;;1.92;;
56631;SDS011;42503;39.928;-75.152;2022-08-18T13:28:48;2.20;;;2.00;;
56631;SDS011;42503;39.928;-75.152;2022-08-18T13:30:49;2.45;;;1.98;;
56631;SDS011;42503;39.928;-75.152;2022-08-18T13:32:50;2.78;;;2.08;;
56631;SDS011;42503;39.928;-75.152;2022-08-18T13:34:52;2.67;;;1.90;;
56631;SDS011;42503;39.928;-75.152;2022-08-18T13:36:53;3.20;;;1.98;;
56631;SDS011;42503;39.928;-75.152;2022-08-18T13:38:54;1.90;;;1.80;;
56631;SDS011;42503;39.928;-75.152;2022-08-18T13:40:56;2.17;;;1.90;;
56631;SDS011;42503;39.928;-75.152;2022-08-18T13:43:00;2.05;;;1.83;;
56631;SDS011;42503;39.928;-75.152;2022-08-18T13:45:04;2.38;;;1.83;;
56631;SDS011;42503;39.928;-75.152;2022-08-18T13:47:05;2.43;;;2.10;;
56631;SDS011;42503;39.928;-75.152;2022-08-18T13:49:09;2.38;;;2.13;;
56631;SDS011;42503;39.928;-75.152;2022-08-18T13:51:21;2.10;;;1.90;;
56631;SDS011;42503;39.928;-75.152;2022-08-18T13:53:23;2.58;;;2.00;;
56631;SDS011;42503;39.928;-75.152;2022-08-18T13:55:27;3.35;;;2.00;;
56631;SDS011;42503;39.928;-75.152;2022-08-18T13:57:28;2.83;;;1.80;;
56631;SDS011;42503;39.928;-75.152;2022-08-18T13:59:31;1.92;;;1.73;;
56631;SDS011;42503;39.928;-75.152;2022-08-18T14:01:34;2.47;;;2.22;;
56631;SDS011;42503;39.928;-75.152;2022-08-18T14:03:36;1.80;;;1.70;;
56631;SDS011;42503;39.928;-75.152;2022-08-18T14:05:37;2.30;;;2.10;;
56631;SDS011;42503;39.928;-75.152;2022-08-18T14:07:38;2.15;;;1.95;;
56631;SDS011;42503;39.928;-75.152;2022-08-18T14:09:38;1.80;;;1.70;;
56631;SDS011;42503;39.928;-75.152;2022-08-18T14:11:39;3.13;;;1.80;;
56631;SDS011;42503;39.928;-75.152;2022-08-18T14:13:40;2.33;;;2.03;;
56631;SDS011;42503;39.928;-75.152;2022-08-18T14:15:41;2.00;;;1.80;;
56631;SDS011;42503;39.928;-75.152;2022-08-18T14:17:48;2.08;;;1.90;;
56631;SDS011;42503;39.928;-75.152;2022-08-18T14:19:52;2.20;;;1.90;;
56631;SDS011;42503;39.928;-75.152;2022-08-18T14:22:12;1.75;;;1.65;;
56631;SDS011;42503;39.928;-75.152;2022-08-18T14:24:32;1.80;;;1.70;;